Time;durP1;ratioP1;P1;durP2;ratioP2;P2;SDS_P1;SDS_P2;PMS_P1;PMS_P2;Temp;Humidity;BMP_temperature;BMP_pressure;BME280_temperature;BME280_humidity;BME280_pressure;Samples;Min_cycle;Max_cycle;Signal;HPM_P1;HPM_P2
2021/12/25 00:00:53;;;;;;;10.25;3.63;;;-1.70;99.90;;;;;;5063034;28;20044;-45
2021/12/25 00:03:19;;;;;;;9.70;4.60;;;-1.70;99.90;;;;;;5069161;28;20114;-46
2021/12/25 00:05:52;;;;;;;5.68;1.85;;;-1.80;99.90;;;;;;5038551;28;20282;-45
2021/12/25 00:08:24;;;;;;;6.90;1.40;;;-1.90;99.90;;;;;;5054746;28;20052;-44
2021/12/25 00:10:51;;;;;;;6.80;0.88;;;-1.90;99.90;;;;;;5052562;28;20509;-46
2021/12/25 00:13:19;;;;;;;5.25;0.40;;;-1.90;99.90;;;;;;5068365;28;20127;-46
2021/12/25 00:15:45;;;;;;;2.22;0.60;;;-2.00;99.90;;;;;;5057918;28;20081;-45
2021/12/25 00:18:12;;;;;;;2.58;0.90;;;-2.00;99.90;;;;;;5033464;28;20107;-44
2021/12/25 00:20:38;;;;;;;9.73;3.58;;;-2.00;99.90;;;;;;5062775;28;20502;-45
2021/12/25 00:23:08;;;;;;;8.10;3.40;;;-2.00;99.90;;;;;;5034397;28;20515;-46
2021/12/25 00:25:53;;;;;;;5.72;1.23;;;-2.10;99.90;;;;;;5063689;28;20044;-45
2021/12/25 00:29:27;;;;;;;5.75;2.63;;;-2.10;99.90;;;;;;5045206;28;20052;-45
2021/12/25 00:36:20;;;;;;;5.05;0.52;;;-2.20;99.90;;;;;;5056384;28;20102;-45
2021/12/25 00:38:49;;;;;;;3.13;0.80;;;-2.20;99.90;;;;;;5057191;28;20119;-45
2021/12/25 00:41:18;;;;;;;5.07;0.98;;;-2.20;99.90;;;;;;5060294;28;20059;-45
2021/12/25 00:43:45;;;;;;;5.50;0.90;;;-2.30;99.90;;;;;;5064789;28;20060;-45
2021/12/25 00:46:11;;;;;;;2.30;0.70;;;-2.30;99.90;;;;;;5060873;28;20036;-45
2021/12/25 00:48:38;;;;;;;4.20;1.67;;;-2.30;99.90;;;;;;5056525;28;20044;-45
2021/12/25 00:51:05;;;;;;;7.70;3.65;;;-2.40;99.90;;;;;;5055459;28;20099;-46
2021/12/25 00:53:31;;;;;;;3.17;0.60;;;-2.40;99.90;;;;;;5053873;28;20367;-45
2021/12/25 00:55:57;;;;;;;5.63;0.85;;;-2.40;99.90;;;;;;5051918;28;20045;-45
2021/12/25 00:58:23;;;;;;;4.32;0.70;;;-2.50;99.90;;;;;;5047577;28;20498;-46
2021/12/25 01:00:51;;;;;;;3.42;0.70;;;-2.50;99.90;;;;;;5043597;28;20052;-46
2021/12/25 01:03:18;;;;;;;3.15;0.70;;;-2.60;99.90;;;;;;5052673;28;20041;-45
2021/12/25 01:05:44;;;;;;;4.15;0.65;;;-2.60;99.90;;;;;;5054689;28;20044;-46
2021/12/25 01:08:10;;;;;;;4.55;0.60;;;-2.60;99.90;;;;;;5052687;28;20088;-45
2021/12/25 01:10:37;;;;;;;1.25;0.57;;;-2.70;99.90;;;;;;5051056;28;20053;-45
2021/12/25 01:13:15;;;;;;;2.13;0.40;;;-2.70;99.90;;;;;;5055022;28;20076;-44
2021/12/25 01:18:57;;;;;;;1.93;0.60;;;-2.70;99.90;;;;;;5053743;28;20060;-46
2021/12/25 01:32:15;;;;;;;0.98;0.30;;;-2.80;99.90;;;;;;5033480;28;20137;-44
2021/12/25 01:49:57;;;;;;;1.17;0.40;;;-3.00;99.90;;;;;;5057788;28;20053;-45
2021/12/25 01:52:29;;;;;;;1.17;0.28;;;-3.00;99.90;;;;;;5053489;28;20044;-44
2021/12/25 01:55:02;;;;;;;0.38;0.20;;;-3.00;99.90;;;;;;5060699;28;20095;-45
2021/12/25 01:57:30;;;;;;;1.20;0.30;;;-3.00;99.90;;;;;;5094020;28;20056;-45
2021/12/25 01:59:57;;;;;;;1.25;0.30;;;-3.10;99.90;;;;;;5053137;28;20049;-43
2021/12/25 02:02:26;;;;;;;1.77;0.38;;;-3.10;99.90;;;;;;5050033;28;20083;-44
2021/12/25 02:04:52;;;;;;;1.13;0.30;;;-3.10;99.90;;;;;;5048727;28;20179;-44
2021/12/25 02:07:19;;;;;;;4.20;0.35;;;-2.90;99.90;;;;;;5055779;28;20056;-44
2021/12/25 02:09:45;;;;;;;1.00;0.33;;;-3.10;99.90;;;;;;5050462;28;20041;-44
2021/12/25 02:12:11;;;;;;;4.07;0.45;;;-3.00;99.90;;;;;;5082030;28;20282;-44
2021/12/25 02:14:41;;;;;;;2.95;0.40;;;-3.20;99.90;;;;;;5053922;28;20085;-43
2021/12/25 02:17:22;;;;;;;0.40;0.20;;;-3.20;99.90;;;;;;5055642;28;20108;-44
2021/12/25 02:20:06;;;;;;;1.00;0.30;;;-3.20;99.90;;;;;;5057492;28;20040;-45
2021/12/25 02:22:33;;;;;;;1.10;0.40;;;-3.20;99.90;;;;;;5054905;28;20099;-44
2021/12/25 02:24:59;;;;;;;2.97;0.40;;;-3.30;99.90;;;;;;5048617;28;20491;-44
2021/12/25 02:27:25;;;;;;;1.15;0.30;;;-3.30;99.90;;;;;;5055533;28;20071;-44
2021/12/25 02:29:52;;;;;;;1.35;0.30;;;-3.30;99.90;;;;;;5085652;28;20068;-43
2021/12/25 02:32:18;;;;;;;1.52;0.10;;;-3.30;99.90;;;;;;5049953;28;20045;-44
2021/12/25 02:34:44;;;;;;;0.65;0.10;;;-3.30;99.90;;;;;;5048621;28;20530;-45
2021/12/25 02:37:10;;;;;;;2.85;0.30;;;-3.30;99.90;;;;;;5054712;28;20231;-45
2021/12/25 02:39:36;;;;;;;2.05;0.20;;;-3.30;99.90;;;;;;5058180;28;20067;-44
2021/12/25 02:42:03;;;;;;;3.70;0.30;;;-3.30;99.90;;;;;;5052474;28;20045;-44
2021/12/25 02:44:28;;;;;;;2.25;0.30;;;-3.30;99.90;;;;;;5031723;28;20583;-44
2021/12/25 02:46:58;;;;;;;2.92;0.30;;;-3.40;99.90;;;;;;5044268;28;20048;-44
2021/12/25 02:49:24;;;;;;;1.55;0.85;;;-3.40;99.90;;;;;;5031282;28;20403;-44
2021/12/25 02:51:52;;;;;;;4.05;0.47;;;-3.40;99.90;;;;;;5043892;28;20094;-44
2021/12/25 02:54:18;;;;;;;5.03;0.30;;;-3.40;99.90;;;;;;5041577;28;20048;-44
2021/12/25 02:56:44;;;;;;;0.60;0.20;;;-3.50;99.90;;;;;;5047893;28;20491;-44
2021/12/25 02:59:15;;;;;;;1.48;0.32;;;-3.50;99.90;;;;;;5047267;28;20059;-44
2021/12/25 03:01:42;;;;;;;1.27;0.38;;;-3.50;99.90;;;;;;5049164;28;20056;-43
2021/12/25 03:04:08;;;;;;;0.80;0.30;;;-3.50;99.90;;;;;;5046834;28;20064;-43
2021/12/25 03:06:37;;;;;;;0.98;0.65;;;-3.50;99.90;;;;;;5054560;28;20067;-44
2021/12/25 03:09:05;;;;;;;2.60;0.30;;;-3.50;99.90;;;;;;5047187;28;20049;-44
2021/12/25 03:11:33;;;;;;;1.35;0.28;;;-3.50;99.90;;;;;;5046951;28;20406;-43
2021/12/25 03:14:13;;;;;;;;;;;-3.50;99.90;;;;;;5048100;28;20053;-44
2021/12/25 03:16:39;;;;;;;3.60;0.30;;;-3.60;99.90;;;;;;5049757;28;20443;-44
2021/12/25 03:19:12;;;;;;;1.23;0.30;;;-3.60;99.90;;;;;;5043536;28;20048;-43
2021/12/25 03:21:38;;;;;;;1.30;0.30;;;-3.60;99.90;;;;;;5049337;28;20044;-45
2021/12/25 03:24:05;;;;;;;2.58;0.35;;;-3.70;99.90;;;;;;5030815;28;20107;-43
2021/12/25 03:26:33;;;;;;;0.40;0.20;;;-3.70;99.90;;;;;;5051392;28;20088;-44
2021/12/25 03:29:03;;;;;;;1.58;0.30;;;-3.70;99.90;;;;;;5038761;28;20623;-43
2021/12/25 03:31:30;;;;;;;2.13;0.30;;;-3.70;99.90;;;;;;5055809;28;20041;-44
2021/12/25 03:33:56;;;;;;;2.45;0.30;;;-3.80;99.90;;;;;;5033467;28;20044;-44
2021/12/25 03:36:23;;;;;;;2.15;0.30;;;-3.80;99.90;;;;;;5055577;28;20033;-44
2021/12/25 03:38:50;;;;;;;1.05;0.40;;;-3.80;99.90;;;;;;5065972;28;20132;-43
2021/12/25 03:41:18;;;;;;;4.72;0.50;;;-3.80;99.90;;;;;;5059883;28;20125;-44
2021/12/25 03:43:45;;;;;;;3.38;0.80;;;-3.90;99.90;;;;;;5053549;28;20056;-44
2021/12/25 03:46:13;;;;;;;0.98;0.30;;;-3.90;99.90;;;;;;5059042;28;20048;-43
2021/12/25 03:59:53;;;;;;;0.77;0.22;;;-4.00;99.90;;;;;;5066333;28;20875;-44
2021/12/25 04:02:25;;;;;;;2.28;0.73;;;-4.00;99.90;;;;;;5030374;28;20124;-43
2021/12/25 04:04:51;;;;;;;1.38;0.28;;;-4.00;99.90;;;;;;5061167;28;20484;-43
2021/12/25 04:07:50;;;;;;;3.20;0.40;;;-4.00;99.90;;;;;;5053226;28;20458;-43
2021/12/25 04:10:12;;;;;;;1.08;0.32;;;-4.00;99.90;;;;;;5080420;28;20443;-44
2021/12/25 04:12:39;;;;;;;1.27;0.40;;;-4.00;99.90;;;;;;5047119;28;20045;-43
2021/12/25 04:15:06;;;;;;;3.80;0.43;;;-4.00;99.90;;;;;;5030491;28;20432;-43
2021/12/25 04:17:32;;;;;;;2.05;0.20;;;-4.00;99.90;;;;;;5065746;28;20091;-44
2021/12/25 04:19:58;;;;;;;0.65;0.30;;;-4.00;99.90;;;;;;5052189;28;20072;-44
2021/12/25 04:22:33;;;;;;;4.10;1.27;;;-4.00;99.90;;;;;;5066175;28;20049;-44
2021/12/25 04:24:59;;;;;;;0.40;0.30;;;-4.00;99.90;;;;;;5055378;28;20462;-43
2021/12/25 04:27:25;;;;;;;1.65;0.20;;;-4.10;99.90;;;;;;5058097;28;20045;-43
2021/12/25 04:29:59;;;;;;;2.53;0.35;;;-4.10;99.90;;;;;;5063120;28;20037;-44
2021/12/25 04:49:11;;;;;;;1.13;0.38;;;-4.10;99.90;;;;;;5067978;28;20049;-44
2021/12/25 05:05:06;;;;;;;0.90;0.30;;;-4.10;99.90;;;;;;5055679;28;20051;-43
2021/12/25 05:07:32;;;;;;;0.95;0.40;;;-4.10;99.90;;;;;;5058210;28;20251;-44
2021/12/25 05:10:00;;;;;;;0.55;0.50;;;-4.20;99.90;;;;;;5037813;28;20062;-44
2021/12/25 05:12:26;;;;;;;0.85;0.20;;;-4.10;99.90;;;;;;5070145;28;20049;-44
2021/12/25 05:14:52;;;;;;;0.77;0.10;;;-4.10;99.90;;;;;;5064857;28;20040;-43
2021/12/25 05:17:18;;;;;;;1.30;0.50;;;-4.10;99.90;;;;;;5041815;28;20041;-44
2021/12/25 05:19:44;;;;;;;2.17;0.40;;;-4.10;99.90;;;;;;5051065;28;20471;-43
2021/12/25 05:22:13;;;;;;;2.05;0.20;;;-4.10;99.90;;;;;;5051540;28;20464;-44
2021/12/25 05:24:39;;;;;;;1.30;0.45;;;-4.20;99.90;;;;;;5032969;28;20166;-44
2021/12/25 05:27:05;;;;;;;1.73;0.35;;;-4.20;99.90;;;;;;5082668;28;20064;-44
2021/12/25 05:29:33;;;;;;;0.90;0.40;;;-4.20;99.90;;;;;;5069720;28;20056;-43
2021/12/25 05:32:01;;;;;;;0.77;0.40;;;-4.10;99.90;;;;;;5057597;28;20043;-43
2021/12/25 05:34:27;;;;;;;1.70;0.68;;;-4.20;99.90;;;;;;5069872;28;20482;-43
2021/12/25 05:36:53;;;;;;;1.98;0.65;;;-4.20;99.90;;;;;;5069619;28;20056;-43
2021/12/25 05:39:20;;;;;;;1.55;0.28;;;-4.30;99.90;;;;;;5069324;28;20048;-43
2021/12/25 05:41:46;;;;;;;4.10;0.50;;;-4.30;99.90;;;;;;5069371;28;20048;-43
2021/12/25 05:44:12;;;;;;;2.22;0.50;;;-4.20;99.90;;;;;;5056166;28;20041;-43
2021/12/25 05:46:38;;;;;;;0.77;0.30;;;-4.30;99.90;;;;;;5052260;28;20047;-43
2021/12/25 05:49:04;;;;;;;1.05;0.30;;;-4.30;99.90;;;;;;5049956;28;20070;-43
2021/12/25 05:51:31;;;;;;;1.30;0.45;;;-4.30;99.90;;;;;;5062421;28;20049;-44
2021/12/25 05:53:57;;;;;;;2.03;0.30;;;-4.20;99.90;;;;;;5057386;28;20033;-44
2021/12/25 05:56:24;;;;;;;0.95;0.30;;;-4.20;99.90;;;;;;5052090;28;20047;-43
2021/12/25 05:58:50;;;;;;;5.10;0.47;;;-3.90;99.90;;;;;;5069007;28;20040;-44
2021/12/25 06:01:16;;;;;;;1.40;0.32;;;-4.20;99.90;;;;;;5068685;28;20044;-43
2021/12/25 06:03:42;;;;;;;0.80;0.25;;;-4.20;99.90;;;;;;5069041;28;20119;-44
2021/12/25 06:06:26;;;;;;;0.82;0.30;;;-4.20;99.90;;;;;;5046171;28;20510;-44
2021/12/25 06:08:53;;;;;;;4.55;0.38;;;-4.20;99.90;;;;;;5037554;28;20053;-44
2021/12/25 06:11:19;;;;;;;0.98;0.30;;;-4.20;99.90;;;;;;5069877;28;20048;-43
2021/12/25 06:13:56;;;;;;;0.82;0.20;;;-4.20;99.90;;;;;;5032400;28;20135;-43
2021/12/25 06:16:22;;;;;;;0.95;0.38;;;-4.20;99.90;;;;;;5065577;28;20033;-43
2021/12/25 06:18:48;;;;;;;3.63;0.30;;;-4.10;99.90;;;;;;5058802;28;20141;-43
2021/12/25 06:21:14;;;;;;;1.15;0.40;;;-4.20;99.90;;;;;;5066072;28;20049;-44
2021/12/25 06:23:40;;;;;;;1.35;0.43;;;-4.20;99.90;;;;;;5060429;28;20087;-44
2021/12/25 06:26:07;;;;;;;3.30;0.40;;;-4.20;99.90;;;;;;5066673;28;20044;-43
2021/12/25 06:28:32;;;;;;;4.15;0.40;;;-4.30;99.90;;;;;;5052592;28;20105;-44
2021/12/25 06:30:58;;;;;;;1.00;0.50;;;-4.30;99.90;;;;;;5055787;28;20491;-43
2021/12/25 06:33:25;;;;;;;2.28;0.40;;;-4.30;99.90;;;;;;5049343;28;20064;-44
2021/12/25 06:35:52;;;;;;;0.70;0.30;;;-4.30;99.90;;;;;;5059014;28;20391;-44
2021/12/25 06:38:18;;;;;;;1.80;0.35;;;-4.40;99.90;;;;;;5041975;28;20092;-43
2021/12/25 06:40:44;;;;;;;2.10;0.35;;;-4.40;99.90;;;;;;5047970;28;20628;-43
2021/12/25 06:43:10;;;;;;;1.65;0.22;;;-4.40;99.90;;;;;;5048796;28;20063;-43
2021/12/25 06:45:38;;;;;;;1.70;0.30;;;-4.40;99.90;;;;;;5053254;28;20040;-44
2021/12/25 06:48:04;;;;;;;0.95;0.30;;;-4.40;99.90;;;;;;5068555;28;20779;-44
2021/12/25 06:50:30;;;;;;;6.93;0.68;;;-4.50;99.90;;;;;;5032996;28;20041;-44
2021/12/25 06:52:56;;;;;;;4.70;0.80;;;-6.00;99.90;;;;;;5048579;28;20048;-44
2021/12/25 06:55:22;;;;;;;1.80;0.43;;;-4.50;99.90;;;;;;5031614;28;20047;-44
2021/12/25 06:57:53;;;;;;;2.42;0.40;;;-4.50;99.90;;;;;;5048611;28;20040;-44
2021/12/25 07:00:21;;;;;;;4.72;0.50;;;-4.60;99.90;;;;;;5048261;28;20048;-43
2021/12/25 07:02:48;;;;;;;1.27;0.50;;;-4.50;99.90;;;;;;5031733;28;20051;-43
2021/12/25 07:05:14;;;;;;;0.90;0.30;;;-4.60;99.90;;;;;;5049449;28;20436;-44
2021/12/25 07:07:43;;;;;;;3.13;0.30;;;-4.60;99.90;;;;;;5038529;28;20114;-43
2021/12/25 07:10:09;;;;;;;2.40;0.35;;;-4.60;99.90;;;;;;5048036;28;20037;-43
2021/12/25 07:12:37;;;;;;;1.80;0.30;;;-4.60;99.90;;;;;;5085394;28;20120;-44
2021/12/25 07:15:07;;;;;;;0.90;0.40;;;-4.60;99.90;;;;;;5049797;28;20124;-43
2021/12/25 07:17:33;;;;;;;3.10;0.52;;;-4.60;99.90;;;;;;5069231;28;20052;-44
2021/12/25 07:19:59;;;;;;;1.27;0.22;;;-4.60;99.90;;;;;;5068226;28;20059;-43
2021/12/25 07:22:26;;;;;;;1.42;0.43;;;-4.60;99.90;;;;;;5054084;28;20076;-43
2021/12/25 07:24:52;;;;;;;1.92;0.50;;;-4.70;99.90;;;;;;5031515;28;20098;-43
2021/12/25 07:27:18;;;;;;;1.00;0.30;;;-4.70;99.90;;;;;;5044733;28;20585;-44
2021/12/25 07:29:44;;;;;;;4.10;0.40;;;-4.70;99.90;;;;;;5051000;28;20052;-44
2021/12/25 07:32:10;;;;;;;2.55;0.45;;;-4.80;99.90;;;;;;5063425;28;20041;-43
2021/12/25 07:34:37;;;;;;;2.88;1.05;;;-4.70;99.90;;;;;;5047885;28;20045;-44
2021/12/25 07:37:04;;;;;;;2.03;0.30;;;-4.80;99.90;;;;;;5049126;28;20045;-43
2021/12/25 07:39:30;;;;;;;1.30;0.30;;;-4.70;99.90;;;;;;5022544;28;20051;-43
2021/12/25 07:41:56;;;;;;;5.25;0.70;;;-4.80;99.90;;;;;;5053890;28;20052;-43
2021/12/25 07:44:22;;;;;;;2.65;0.50;;;-4.80;99.90;;;;;;5049296;28;20570;-43
2021/12/25 07:46:48;;;;;;;3.75;0.65;;;-4.80;99.90;;;;;;5067614;28;20040;-43
2021/12/25 07:49:20;;;;;;;3.10;0.65;;;-4.80;99.90;;;;;;5067786;28;20063;-43
2021/12/25 07:51:47;;;;;;;2.58;0.50;;;-4.80;99.90;;;;;;5068867;28;20350;-44
2021/12/25 07:54:13;;;;;;;;;;;-4.80;99.90;;;;;;5061048;28;20052;-43
2021/12/25 07:56:39;;;;;;;1.05;0.40;;;-4.90;99.90;;;;;;5041635;28;20263;-43
2021/12/25 07:59:06;;;;;;;0.50;0.43;;;-4.90;99.90;;;;;;5068624;28;20040;-43
2021/12/25 08:01:34;;;;;;;1.05;0.40;;;-4.80;99.90;;;;;;5065851;28;20757;-43
2021/12/25 08:04:02;;;;;;;3.35;0.52;;;-4.90;99.90;;;;;;5072647;28;20051;-43
2021/12/25 08:06:28;;;;;;;;;;;-4.90;99.90;;;;;;5061292;28;20382;-43
2021/12/25 08:08:56;;;;;;;3.05;1.05;;;-4.90;99.90;;;;;;5055590;28;19921;-43
2021/12/25 08:11:23;;;;;;;3.85;0.50;;;-4.90;99.90;;;;;;5066371;28;20056;-43
2021/12/25 08:13:50;;;;;;;0.73;0.40;;;-4.90;99.90;;;;;;5037555;28;20048;-43
2021/12/25 08:16:16;;;;;;;4.30;1.48;;;-4.90;99.90;;;;;;5065962;28;20122;-43
2021/12/25 08:18:42;;;;;;;1.48;0.40;;;-4.90;99.90;;;;;;5062604;28;20060;-43
2021/12/25 08:21:08;;;;;;;2.03;0.60;;;-4.90;99.90;;;;;;5070902;28;20048;-43
2021/12/25 08:23:34;;;;;;;1.90;0.30;;;-4.90;99.90;;;;;;5011445;28;20051;-44
2021/12/25 08:26:01;;;;;;;2.28;0.40;;;-4.90;99.90;;;;;;5050027;28;20037;-43
2021/12/25 08:28:27;;;;;;;6.10;0.57;;;-4.90;99.90;;;;;;5066001;28;20032;-43
2021/12/25 08:30:53;;;;;;;1.95;0.50;;;-4.90;99.90;;;;;;5065679;28;20549;-44
2021/12/25 08:33:20;;;;;;;1.02;0.38;;;-4.80;99.90;;;;;;5067277;28;20044;-43
2021/12/25 08:35:46;;;;;;;1.25;0.40;;;-4.80;99.90;;;;;;5062620;28;20064;-43
2021/12/25 08:38:15;;;;;;;0.98;0.57;;;-4.80;99.90;;;;;;5028709;28;20040;-43
2021/12/25 08:40:43;;;;;;;2.53;0.60;;;-4.80;99.90;;;;;;5053590;28;20049;-43
2021/12/25 08:43:09;;;;;;;;;;;-4.70;99.90;;;;;;5052891;28;20041;-43
2021/12/25 08:45:49;;;;;;;2.42;0.63;;;-4.70;99.90;;;;;;5052322;28;19924;-44
2021/12/25 08:48:19;;;;;;;0.90;0.45;;;-4.70;99.90;;;;;;5035637;28;20067;-43
2021/12/25 08:50:53;;;;;;;2.67;0.63;;;-4.70;99.90;;;;;;5054645;28;20040;-43
2021/12/25 08:53:20;;;;;;;4.63;0.70;;;-4.60;99.90;;;;;;5053530;28;20116;-43
2021/12/25 08:55:48;;;;;;;2.58;0.70;;;-4.60;99.90;;;;;;5051985;28;20477;-43
2021/12/25 08:58:15;;;;;;;3.30;1.10;;;-4.50;99.90;;;;;;5052047;28;20053;-44
2021/12/25 09:00:41;;;;;;;3.60;0.50;;;-4.50;99.90;;;;;;5048961;28;20051;-44
2021/12/25 09:03:08;;;;;;;1.20;0.43;;;-4.50;99.90;;;;;;5057362;28;20119;-44
2021/12/25 09:05:35;;;;;;;1.85;0.40;;;-4.50;99.90;;;;;;5059149;28;20041;-43
2021/12/25 09:08:02;;;;;;;2.50;0.68;;;-4.40;99.90;;;;;;5046688;28;20359;-44
2021/12/25 09:10:30;;;;;;;1.90;0.50;;;-4.40;99.90;;;;;;5057791;28;20559;-44
2021/12/25 09:12:58;;;;;;;3.53;0.47;;;-4.30;99.90;;;;;;5037106;28;20095;-43
2021/12/25 09:15:25;;;;;;;1.50;0.50;;;-4.30;99.90;;;;;;5062521;28;20075;-44
2021/12/25 09:17:52;;;;;;;2.08;0.60;;;-4.20;99.90;;;;;;5052011;28;20208;-43
2021/12/25 09:20:20;;;;;;;0.80;0.40;;;-4.10;99.90;;;;;;5056397;28;20069;-44
2021/12/25 09:22:50;;;;;;;2.70;0.60;;;-4.10;99.90;;;;;;5100837;28;20041;-43
2021/12/25 09:25:16;;;;;;;4.20;1.10;;;-4.00;99.90;;;;;;5062903;28;20406;-44
2021/12/25 09:27:43;;;;;;;2.58;0.63;;;-4.00;99.90;;;;;;5056900;28;20374;-45
2021/12/25 09:30:10;;;;;;;3.15;0.47;;;-3.90;99.90;;;;;;5065281;28;20447;-43
2021/12/25 09:32:37;;;;;;;2.88;0.60;;;-3.90;99.90;;;;;;5048132;28;20128;-44
2021/12/25 09:35:03;;;;;;;2.80;0.75;;;-3.80;99.90;;;;;;5060603;28;20044;-43
2021/12/25 09:37:30;;;;;;;2.65;0.47;;;-3.80;99.90;;;;;;5039924;28;20048;-45
2021/12/25 09:39:58;;;;;;;1.75;0.50;;;-3.70;99.90;;;;;;5060456;28;20036;-44
2021/12/25 09:42:25;;;;;;;;;;;-3.70;99.90;;;;;;5063364;28;20487;-44
2021/12/25 09:44:52;;;;;;;0.65;0.40;;;-3.70;99.90;;;;;;5068006;28;20351;-44
2021/12/25 09:47:20;;;;;;;1.90;0.57;;;-3.60;99.90;;;;;;5031739;28;20036;-44
2021/12/25 09:49:47;;;;;;;1.85;0.50;;;-3.60;99.90;;;;;;5090231;28;20581;-43
2021/12/25 09:52:14;;;;;;;;;;;-3.50;99.90;;;;;;5062502;28;20497;-44
2021/12/25 09:54:40;;;;;;;1.45;0.40;;;-3.50;99.90;;;;;;5066216;28;19916;-44
2021/12/25 09:57:07;;;;;;;2.92;0.50;;;-3.50;99.90;;;;;;5063207;28;20251;-44
2021/12/25 09:59:33;;;;;;;3.10;0.70;;;-3.40;99.90;;;;;;5032799;28;20049;-44
2021/12/25 10:02:01;;;;;;;1.33;0.47;;;-3.40;99.90;;;;;;5063949;28;20389;-43
2021/12/25 10:04:39;;;;;;;2.83;0.60;;;-3.30;99.90;;;;;;5032140;28;20496;-44
2021/12/25 10:07:22;;;;;;;2.45;0.70;;;-3.30;99.90;;;;;;5066399;28;20477;-45
2021/12/25 10:10:00;;;;;;;1.75;0.50;;;-3.20;99.90;;;;;;5064693;28;20049;-45
2021/12/25 10:12:40;;;;;;;1.15;0.40;;;-3.10;99.90;;;;;;5062084;28;20044;-44
2021/12/25 10:15:08;;;;;;;1.52;0.70;;;-3.10;99.90;;;;;;5049371;28;20090;-45
2021/12/25 10:17:41;;;;;;;3.92;0.50;;;-3.10;99.90;;;;;;5067346;28;20057;-44
2021/12/25 10:20:11;;;;;;;2.47;0.32;;;-3.10;99.90;;;;;;5060667;28;20513;-45
2021/12/25 10:22:56;;;;;;;2.25;0.60;;;-3.10;99.90;;;;;;5068573;28;20059;-45
2021/12/25 10:25:24;;;;;;;1.75;0.43;;;-3.00;99.90;;;;;;5063867;28;20429;-45
2021/12/25 10:27:55;;;;;;;2.17;0.45;;;-2.90;99.90;;;;;;5054666;28;20132;-45
2021/12/25 10:30:22;;;;;;;1.23;0.43;;;-2.90;99.90;;;;;;5032807;28;20132;-44
2021/12/25 10:32:48;;;;;;;2.60;0.50;;;-2.90;99.90;;;;;;5061851;28;20085;-45
2021/12/25 10:35:19;;;;;;;4.45;0.52;;;-2.80;99.90;;;;;;5081925;28;20041;-44
2021/12/25 10:37:47;;;;;;;2.97;0.57;;;-2.80;99.90;;;;;;5099796;28;20120;-45
2021/12/25 10:40:23;;;;;;;;;;;-2.80;99.90;;;;;;5055528;28;20117;-45
2021/12/25 10:42:49;;;;;;;4.65;0.70;;;-2.70;99.90;;;;;;5048905;28;19924;-44
2021/12/25 10:45:15;;;;;;;3.65;0.55;;;-2.60;99.90;;;;;;5050228;28;20422;-45
2021/12/25 10:47:42;;;;;;;1.63;0.40;;;-2.60;99.90;;;;;;5060304;28;20040;-44
2021/12/25 10:50:18;;;;;;;1.63;0.60;;;-2.60;99.90;;;;;;5033662;28;20048;-44
2021/12/25 10:52:47;;;;;;;2.50;0.50;;;-2.60;99.90;;;;;;5059452;28;20036;-46
2021/12/25 10:55:15;;;;;;;2.55;0.60;;;-2.50;99.90;;;;;;5064217;28;20041;-45
2021/12/25 10:57:42;;;;;;;;;;;-2.50;99.90;;;;;;5059278;28;20131;-44
2021/12/25 11:00:30;;;;;;;6.25;0.85;;;-2.40;99.90;;;;;;5050339;28;20328;-45
2021/12/25 11:03:05;;;;;;;3.50;0.60;;;-2.40;99.90;;;;;;5062386;28;20147;-45
2021/12/25 11:05:34;;;;;;;3.17;0.60;;;-2.40;99.90;;;;;;5068270;28;20044;-44
2021/12/25 11:08:08;;;;;;;2.88;0.77;;;-2.40;99.90;;;;;;5052643;28;20067;-45
2021/12/25 11:10:53;;;;;;;2.80;1.75;;;-2.40;99.90;;;;;;5047635;28;20432;-44
2021/12/25 11:13:33;;;;;;;2.28;0.80;;;-2.30;99.90;;;;;;5048806;28;20056;-45
2021/12/25 11:16:26;;;;;;;2.63;0.60;;;-2.30;99.90;;;;;;5031902;28;20091;-45
2021/12/25 11:19:08;;;;;;;4.88;0.90;;;-2.30;99.90;;;;;;5049990;28;20080;-45
2021/12/25 11:21:46;;;;;;;4.80;0.93;;;-2.30;99.90;;;;;;5095092;28;20475;-44
2021/12/25 11:24:17;;;;;;;5.57;0.88;;;-2.20;99.90;;;;;;5051652;28;20163;-45
2021/12/25 11:26:45;;;;;;;1.20;0.63;;;-2.20;99.90;;;;;;5080480;28;20040;-44
2021/12/25 11:29:14;;;;;;;2.13;0.60;;;-2.20;99.90;;;;;;5058957;28;20060;-45
2021/12/25 11:31:42;;;;;;;3.60;0.77;;;-2.20;99.90;;;;;;5041546;28;20044;-46
2021/12/25 11:34:09;;;;;;;3.22;0.63;;;-2.20;99.90;;;;;;5053909;28;20047;-46
2021/12/25 11:36:43;;;;;;;3.53;0.70;;;-2.10;99.90;;;;;;5058717;28;20411;-45
2021/12/25 11:39:09;;;;;;;6.43;1.35;;;-2.10;99.90;;;;;;5067885;28;20562;-46
2021/12/25 11:41:37;;;;;;;2.95;0.63;;;-2.10;99.90;;;;;;5055926;28;20079;-45
2021/12/25 11:44:06;;;;;;;;;;;-2.10;99.90;;;;;;5074336;28;20051;-44
2021/12/25 11:46:47;;;;;;;1.95;0.60;;;-2.10;99.90;;;;;;5057811;28;19944;-44
2021/12/25 11:49:15;;;;;;;4.40;0.80;;;-2.00;99.90;;;;;;5078175;28;20492;-46
2021/12/25 11:51:44;;;;;;;3.33;0.70;;;-2.00;99.90;;;;;;5066887;28;20509;-45
2021/12/25 11:55:09;;;;;;;5.22;0.68;;;-2.00;99.90;;;;;;5065678;28;20391;-45
2021/12/25 12:00:47;;;;;;;4.63;0.82;;;-2.00;99.90;;;;;;5066274;28;20040;-45
2021/12/25 12:03:41;;;;;;;1.45;0.68;;;-2.00;99.90;;;;;;5061173;28;20108;-44
2021/12/25 12:06:08;;;;;;;5.30;1.20;;;-2.00;99.90;;;;;;5063917;28;20055;-45
2021/12/25 12:08:54;;;;;;;2.35;0.77;;;-2.00;99.90;;;;;;5091429;28;20094;-45
2021/12/25 12:11:26;;;;;;;5.80;0.80;;;-2.00;99.90;;;;;;5042947;28;20055;-45
2021/12/25 12:14:31;;;;;;;2.85;0.90;;;-2.00;99.90;;;;;;5047878;28;20068;-45
2021/12/25 12:16:59;;;;;;;1.88;0.80;;;-2.00;99.90;;;;;;5045394;28;20069;-45
2021/12/25 12:19:35;;;;;;;;;;;-2.00;99.90;;;;;;5027047;28;20072;-44
2021/12/25 12:25:46;;;;;;;3.47;0.80;;;-2.00;99.90;;;;;;5047490;28;20063;-44
2021/12/25 12:28:08;;;;;;;1.40;0.50;;;-1.90;99.90;;;;;;5079370;28;20049;-45
2021/12/25 12:30:43;;;;;;;3.58;0.70;;;-1.90;99.90;;;;;;5046158;28;20041;-44
2021/12/25 12:33:14;;;;;;;5.50;1.88;;;-1.90;99.90;;;;;;5047313;28;20041;-44
2021/12/25 12:35:42;;;;;;;3.95;0.75;;;-1.90;99.90;;;;;;5060310;28;20045;-45
2021/12/25 12:38:40;;;;;;;5.88;0.88;;;-1.90;99.90;;;;;;5049854;28;20051;-45
2021/12/25 12:41:33;;;;;;;1.20;0.50;;;-1.90;99.90;;;;;;5049979;28;20080;-46
2021/12/25 12:44:13;;;;;;;1.85;0.70;;;-1.90;99.90;;;;;;5056518;28;20072;-45
2021/12/25 12:46:48;;;;;;;1.13;0.60;;;-1.90;99.90;;;;;;5053901;28;20379;-46
2021/12/25 12:49:18;;;;;;;4.03;0.75;;;-1.90;99.90;;;;;;5071921;28;20121;-45
2021/12/25 12:51:46;;;;;;;1.88;0.68;;;-1.80;99.90;;;;;;5050421;28;20045;-45
2021/12/25 12:54:40;;;;;;;5.72;0.70;;;-1.80;99.90;;;;;;5059473;28;20449;-46
2021/12/25 12:57:06;;;;;;;2.60;0.80;;;-1.80;99.90;;;;;;5052444;28;20095;-46
2021/12/25 13:00:08;;;;;;;1.67;0.63;;;-1.80;99.90;;;;;;5040606;28;20061;-47
2021/12/25 13:02:44;;;;;;;4.63;0.98;;;-1.70;99.90;;;;;;5047308;28;20471;-44
2021/12/25 13:05:11;;;;;;;2.78;0.82;;;-1.70;99.90;;;;;;5070647;28;20088;-44
2021/12/25 13:07:40;;;;;;;1.90;0.70;;;-1.70;99.90;;;;;;5071707;28;20449;-46
2021/12/25 13:10:21;;;;;;;5.80;1.08;;;-1.70;99.90;;;;;;5057146;28;20080;-46
2021/12/25 13:12:50;;;;;;;1.63;0.57;;;-1.70;99.90;;;;;;5058309;28;20052;-45
2021/12/25 13:15:32;;;;;;;5.32;1.50;;;-1.70;99.90;;;;;;5068213;28;20198;-46
2021/12/25 13:18:03;;;;;;;7.63;2.60;;;-1.70;99.90;;;;;;5047507;28;20048;-45
2021/12/25 13:20:46;;;;;;;9.52;4.78;;;-1.70;99.90;;;;;;5066919;28;20056;-45
2021/12/25 13:23:18;;;;;;;54.40;20.63;;;-1.70;99.90;;;;;;5053009;28;20033;-44
2021/12/25 13:25:46;;;;;;;12.18;5.90;;;-1.70;99.90;;;;;;5034833;28;20135;-45
2021/12/25 13:28:12;;;;;;;;;;;-1.70;99.90;;;;;;5067750;28;20185;-46
2021/12/25 13:30:43;;;;;;;37.70;20.23;;;-1.70;99.90;;;;;;5052130;28;20002;-45
2021/12/25 13:33:12;;;;;;;11.75;6.43;;;-1.70;99.90;;;;;;5069732;28;20032;-45
2021/12/25 13:35:40;;;;;;;69.43;33.40;;;-1.70;99.90;;;;;;5064909;28;20482;-45
2021/12/25 13:38:06;;;;;;;5.57;3.40;;;-1.70;99.90;;;;;;5092199;28;20040;-46
2021/12/25 13:40:46;;;;;;;5.85;3.40;;;-1.80;99.90;;;;;;5066009;28;20049;-44
2021/12/25 13:43:12;;;;;;;20.20;11.82;;;-1.80;99.90;;;;;;5065319;28;20479;-44
2021/12/25 13:45:39;;;;;;;23.70;13.48;;;-1.50;99.90;;;;;;5067655;28;20089;-46
2021/12/25 13:48:06;;;;;;;16.98;9.18;;;-1.90;99.90;;;;;;5065830;28;20123;-44
2021/12/25 13:50:34;;;;;;;7.07;3.75;;;-2.00;99.90;;;;;;5062431;28;20123;-45
2021/12/25 13:53:00;;;;;;;6.35;2.25;;;-2.00;99.90;;;;;;5070453;28;20051;-44
2021/12/25 13:55:34;;;;;;;10.63;7.15;;;-2.10;99.90;;;;;;5048959;28;20471;-45
2021/12/25 13:58:06;;;;;;;4.07;2.38;;;-2.10;99.90;;;;;;5068455;28;20119;-47
2021/12/25 14:00:46;;;;;;;7.15;4.70;;;-2.10;99.90;;;;;;5092670;28;20056;-45
2021/12/25 14:03:14;;;;;;;6.45;4.80;;;-2.10;99.90;;;;;;5061496;28;20358;-45
2021/12/25 14:05:42;;;;;;;4.57;2.30;;;-2.20;99.90;;;;;;5066856;28;20066;-45
2021/12/25 14:08:10;;;;;;;3.40;1.00;;;-2.20;99.90;;;;;;5068421;28;20454;-44
2021/12/25 14:10:39;;;;;;;3.35;0.88;;;-2.20;99.90;;;;;;5065853;28;20068;-45
2021/12/25 14:13:12;;;;;;;2.92;0.80;;;-2.20;99.90;;;;;;5066146;28;20036;-45
2021/12/25 14:15:42;;;;;;;3.63;1.02;;;-2.20;99.90;;;;;;5064953;28;20032;-46
2021/12/25 14:18:09;;;;;;;5.25;1.60;;;-2.30;99.90;;;;;;5064166;28;20057;-44
2021/12/25 14:20:39;;;;;;;5.32;2.03;;;-2.30;99.90;;;;;;5067250;28;20101;-44
2021/12/25 14:23:07;;;;;;;3.72;1.30;;;-2.30;99.90;;;;;;5050009;28;20041;-45